DEWLS EDRK-EDFH
Flight info
| Callsign | DEWLS |
|---|---|
| Flight time | 0h 14m |
| Altitude | 3000 |
| Route | VFR |
| Aircraft | S22T/L-V/N |
Departure
| Time | 2026-05-09 17:15 |
|---|---|
| Airport | Koblenz-Winningen Airfield (EDRK) |
Arrival
| Time | 2026-05-09 17:30 |
|---|---|
| Airport | Frankfurt-Hahn Airport (EDFH) |
| Time | Latitude | Longitude | Altitude | Speed | Heading |
|---|---|---|---|---|---|
| 2026-05-09 17:11 | 50.32311 | 7.52546 | 650 ft | 0 kts | 148° |
| 2026-05-09 17:12 | 50.32303 | 7.52546 | 650 ft | 5 kts | 205° |
| 2026-05-09 17:13 | 50.32290 | 7.52459 | 650 ft | 12 kts | 230° |
| 2026-05-09 17:13 | 50.32275 | 7.52356 | 652 ft | 0 kts | 281° |
| 2026-05-09 17:13 | 50.32277 | 7.52347 | 652 ft | 0 kts | 301° |
| 2026-05-09 17:14 | 50.32284 | 7.52335 | 652 ft | 8 kts | 322° |
| 2026-05-09 17:14 | 50.32333 | 7.52343 | 650 ft | 12 kts | 59° |
| 2026-05-09 17:14 | 50.32511 | 7.52762 | 661 ft | 80 kts | 54° |
| 2026-05-09 17:15 | 50.32848 | 7.53512 | 960 ft | 87 kts | 54° |
| 2026-05-09 17:15 | 50.33270 | 7.54254 | 1235 ft | 95 kts | 24° |
| 2026-05-09 17:15 | 50.33904 | 7.54024 | 1644 ft | 97 kts | 320° |
| 2026-05-09 17:15 | 50.34480 | 7.53327 | 1987 ft | 106 kts | 319° |
| 2026-05-09 17:16 | 50.34812 | 7.52286 | 2126 ft | 133 kts | 251° |
| 2026-05-09 17:17 | 50.33281 | 7.41592 | 3146 ft | 176 kts | 232° |
| 2026-05-09 17:18 | 50.32304 | 7.40442 | 3146 ft | 178 kts | 208° |
| 2026-05-09 17:18 | 50.31208 | 7.39543 | 3146 ft | 178 kts | 206° |
| 2026-05-09 17:18 | 50.30072 | 7.38754 | 3144 ft | 179 kts | 203° |
| 2026-05-09 17:18 | 50.28943 | 7.37994 | 3146 ft | 179 kts | 203° |
| 2026-05-09 17:19 | 50.27799 | 7.37227 | 3144 ft | 179 kts | 203° |
| 2026-05-09 17:19 | 50.26652 | 7.36457 | 3144 ft | 179 kts | 203° |
| 2026-05-09 17:19 | 50.25507 | 7.35688 | 3145 ft | 179 kts | 203° |
| 2026-05-09 17:19 | 50.24370 | 7.34920 | 3062 ft | 178 kts | 203° |
| 2026-05-09 17:20 | 50.23245 | 7.34160 | 2950 ft | 173 kts | 203° |
| 2026-05-09 17:20 | 50.22177 | 7.33395 | 2936 ft | 165 kts | 206° |
| 2026-05-09 17:20 | 50.21163 | 7.32593 | 2934 ft | 161 kts | 206° |
| 2026-05-09 17:20 | 50.20167 | 7.31828 | 2937 ft | 158 kts | 206° |
| 2026-05-09 17:21 | 50.19185 | 7.31075 | 2936 ft | 157 kts | 206° |
| 2026-05-09 17:21 | 50.18209 | 7.30325 | 2938 ft | 156 kts | 206° |
| 2026-05-09 17:21 | 50.17237 | 7.29580 | 2935 ft | 155 kts | 206° |
| 2026-05-09 17:21 | 50.16281 | 7.28884 | 2896 ft | 152 kts | 204° |
| 2026-05-09 17:22 | 50.15305 | 7.28196 | 2691 ft | 154 kts | 204° |
| 2026-05-09 17:22 | 50.14329 | 7.27509 | 2515 ft | 154 kts | 204° |
| 2026-05-09 17:22 | 50.13370 | 7.26835 | 2447 ft | 145 kts | 204° |
| 2026-05-09 17:22 | 50.12488 | 7.26217 | 2401 ft | 135 kts | 204° |
| 2026-05-09 17:23 | 50.11620 | 7.25608 | 2237 ft | 136 kts | 204° |
| 2026-05-09 17:23 | 50.10758 | 7.25007 | 2103 ft | 136 kts | 204° |
| 2026-05-09 17:23 | 50.09898 | 7.24406 | 1964 ft | 135 kts | 204° |
| 2026-05-09 17:23 | 50.09066 | 7.23825 | 1943 ft | 127 kts | 204° |
| 2026-05-09 17:25 | 50.05409 | 7.21279 | 1935 ft | 108 kts | 204° |
| 2026-05-09 17:25 | 50.04719 | 7.20820 | 1938 ft | 107 kts | 203° |
| 2026-05-09 17:25 | 50.04036 | 7.20366 | 1936 ft | 106 kts | 203° |
| 2026-05-09 17:25 | 50.03364 | 7.19906 | 1935 ft | 106 kts | 204° |
| 2026-05-09 17:26 | 50.02690 | 7.19482 | 1939 ft | 104 kts | 214° |
| 2026-05-09 17:26 | 50.02133 | 7.18783 | 1936 ft | 104 kts | 226° |
| 2026-05-09 17:26 | 50.01706 | 7.17867 | 1938 ft | 104 kts | 236° |
| 2026-05-09 17:26 | 50.01358 | 7.16902 | 1937 ft | 104 kts | 245° |
| 2026-05-09 17:27 | 50.01087 | 7.15847 | 1936 ft | 104 kts | 255° |
| 2026-05-09 17:27 | 50.00948 | 7.14762 | 1936 ft | 104 kts | 258° |
| 2026-05-09 17:27 | 50.00811 | 7.13661 | 1936 ft | 104 kts | 259° |
| 2026-05-09 17:27 | 50.00785 | 7.12547 | 1938 ft | 103 kts | 270° |
| 2026-05-09 17:28 | 50.00785 | 7.11431 | 1939 ft | 103 kts | 270° |
| 2026-05-09 17:28 | 50.00853 | 7.10329 | 1935 ft | 103 kts | 298° |
| 2026-05-09 17:28 | 50.01445 | 7.09769 | 1942 ft | 102 kts | 342° |
| 2026-05-09 17:28 | 50.02128 | 7.09470 | 1942 ft | 102 kts | 342° |
| 2026-05-09 17:29 | 50.02797 | 7.09106 | 1944 ft | 102 kts | 339° |
| 2026-05-09 17:29 | 50.03467 | 7.08811 | 1942 ft | 102 kts | 1° |
| 2026-05-09 17:29 | 50.04176 | 7.08807 | 1945 ft | 102 kts | 354° |
| 2026-05-09 17:29 | 50.04813 | 7.09012 | 1782 ft | 90 kts | 61° |
| 2026-05-09 17:30 | 50.04882 | 7.09176 | 962 ft | 0 kts | 21° |